createdAt,value
2022-11-21T00:01:11.974Z,63.28
2022-11-21T00:03:38.791Z,63.66
2022-11-21T00:06:05.413Z,63.26
2022-11-21T00:08:32.041Z,63.03
2022-11-21T00:11:01.851Z,63.03
2022-11-21T00:13:28.344Z,63.45
2022-11-21T00:15:55.068Z,63.92
2022-11-21T00:18:21.726Z,63.66
2022-11-21T00:20:48.403Z,63.84
2022-11-21T00:23:15.108Z,64.21
2022-11-21T00:25:41.765Z,64.95
2022-11-21T00:28:08.947Z,64.87
2022-11-21T00:30:35.875Z,64.52
2022-11-21T00:33:02.517Z,64.70
2022-11-21T00:35:31.433Z,65.20
2022-11-21T00:37:58.069Z,65.24
2022-11-21T00:40:24.641Z,65.34
2022-11-21T00:42:51.255Z,65.54
2022-11-21T00:45:23.854Z,65.81
2022-11-21T00:47:51.003Z,66.51
2022-11-21T00:50:17.699Z,66.67
2022-11-21T00:52:44.334Z,66.41
2022-11-21T00:55:10.978Z,66.10
2022-11-21T00:57:37.541Z,66.15
2022-11-21T01:00:05.803Z,66.09
2022-11-21T01:02:33.052Z,66.49
2022-11-21T01:04:59.792Z,66.61
2022-11-21T01:07:26.635Z,67.31
2022-11-21T01:09:53.297Z,66.91
2022-11-21T01:12:19.911Z,67.00
2022-11-21T01:14:46.520Z,66.98
2022-11-21T01:17:13.385Z,66.87
2022-11-21T01:19:40.046Z,67.40
2022-11-21T01:22:06.635Z,67.03
2022-11-21T01:24:33.330Z,67.49
2022-11-21T01:27:00.007Z,67.72
2022-11-21T01:29:27.941Z,67.55
2022-11-21T01:31:54.576Z,67.29
2022-11-21T01:34:21.322Z,68.04
2022-11-21T01:36:47.970Z,68.66
2022-11-21T01:39:14.603Z,68.99
2022-11-21T01:41:43.789Z,69.16
2022-11-21T01:44:17.832Z,68.53
2022-11-21T01:46:44.679Z,68.43
2022-11-21T01:49:16.590Z,68.73
2022-11-21T01:51:52.507Z,68.90
2022-11-21T01:54:33.058Z,68.88
2022-11-21T01:57:29.917Z,68.57
2022-11-21T02:00:05.886Z,68.17
2022-11-21T02:02:44.234Z,68.36
2022-11-21T02:05:16.205Z,68.33
2022-11-21T02:07:46.308Z,68.40
2022-11-21T02:10:14.425Z,68.40
2022-11-21T02:12:47.406Z,68.03
2022-11-21T02:15:14.797Z,68.50
2022-11-21T02:17:41.386Z,68.61
2022-11-21T02:20:11.374Z,68.04
2022-11-21T02:23:02.663Z,68.02
2022-11-21T02:25:31.181Z,67.91
2022-11-21T02:28:01.676Z,68.17
2022-11-21T02:30:32.729Z,67.75
2022-11-21T02:32:59.267Z,67.12
2022-11-21T02:35:26.207Z,67.09
2022-11-21T02:38:16.842Z,66.49
2022-11-21T02:40:52.137Z,65.55
2022-11-21T02:43:28.515Z,65.86
2022-11-21T02:45:55.199Z,64.63
2022-11-21T02:48:21.853Z,65.26
2022-11-21T02:50:48.567Z,64.48
2022-11-21T02:53:18.719Z,64.44
2022-11-21T02:55:45.751Z,64.83
2022-11-21T02:58:13.050Z,64.51
2022-11-21T03:00:41.232Z,64.92
2022-11-21T03:03:08.753Z,64.91
2022-11-21T03:05:35.929Z,65.37
2022-11-21T03:08:03.471Z,64.77
2022-11-21T03:10:30.298Z,64.74
2022-11-21T03:13:01.054Z,64.67
2022-11-21T03:15:30.550Z,64.94
2022-11-21T03:17:57.815Z,64.82
2022-11-21T03:20:24.899Z,65.04
2022-11-21T03:22:53.389Z,65.29
2022-11-21T03:25:20.360Z,65.17
2022-11-21T03:27:50.067Z,65.20
2022-11-21T03:30:16.707Z,64.40
2022-11-21T03:32:43.492Z,65.44
2022-11-21T03:35:10.150Z,65.05
2022-11-21T03:37:36.760Z,65.51
2022-11-21T03:40:04.115Z,65.87
2022-11-21T03:42:30.643Z,65.94
2022-11-21T03:44:57.207Z,66.04
2022-11-21T03:47:24.711Z,65.88
2022-11-21T03:49:51.371Z,66.08
2022-11-21T03:52:18.032Z,66.32
2022-11-21T03:54:44.632Z,66.24
2022-11-21T03:57:11.171Z,66.19
2022-11-21T03:59:37.777Z,66.67
2022-11-21T04:02:04.499Z,66.49
2022-11-21T04:04:31.096Z,66.20
2022-11-21T04:06:57.762Z,65.60
2022-11-21T04:09:24.342Z,66.62
2022-11-21T04:11:50.980Z,66.01
2022-11-21T04:14:17.768Z,65.93
2022-11-21T04:16:44.316Z,66.07
2022-11-21T04:19:10.894Z,66.20
2022-11-21T04:21:37.499Z,66.34
2022-11-21T04:24:04.445Z,66.11
2022-11-21T04:26:30.955Z,66.59
2022-11-21T04:28:57.999Z,66.51
2022-11-21T04:31:24.585Z,66.35
2022-11-21T04:33:51.076Z,66.40
2022-11-21T04:36:18.354Z,65.74
2022-11-21T04:38:44.920Z,65.38
2022-11-21T04:41:11.511Z,64.63
2022-11-21T04:43:38.241Z,64.57
2022-11-21T04:46:04.904Z,64.36
2022-11-21T04:48:32.597Z,64.09
2022-11-21T04:50:59.868Z,63.81
2022-11-21T04:53:26.431Z,62.97
2022-11-21T04:55:53.012Z,63.36
2022-11-21T04:58:19.620Z,62.88
2022-11-21T05:00:46.196Z,63.04
2022-11-21T05:03:12.763Z,63.20
2022-11-21T05:05:39.343Z,63.82
2022-11-21T05:08:05.912Z,64.63
2022-11-21T05:10:52.537Z,64.67
2022-11-21T05:13:22.164Z,64.51
2022-11-21T05:15:51.642Z,64.66
2022-11-21T05:18:19.988Z,63.93
2022-11-21T05:20:47.009Z,63.59
2022-11-21T05:23:13.996Z,63.47
2022-11-21T05:25:40.713Z,64.27
2022-11-21T05:28:07.329Z,64.97
2022-11-21T05:30:34.045Z,64.71
2022-11-21T05:33:00.699Z,64.24
2022-11-21T05:35:27.211Z,64.30
2022-11-21T05:37:57.535Z,64.14
2022-11-21T05:40:25.361Z,64.49
2022-11-21T05:43:10.503Z,64.98
2022-11-21T05:45:37.089Z,65.01
2022-11-21T05:48:07.853Z,64.59
2022-11-21T05:50:37.671Z,64.55
2022-11-21T05:53:04.663Z,64.33
2022-11-21T05:55:33.963Z,63.86
2022-11-21T05:58:01.124Z,63.87
2022-11-21T06:00:28.983Z,64.21
2022-11-21T06:03:14.658Z,63.83
2022-11-21T06:05:41.442Z,63.78
2022-11-21T06:08:08.077Z,63.87
2022-11-21T06:10:34.699Z,63.62
2022-11-21T06:13:01.816Z,63.25
2022-11-21T06:15:28.948Z,62.94
2022-11-21T06:17:55.495Z,63.46
2022-11-21T06:20:22.072Z,63.21
2022-11-21T06:22:48.807Z,62.59
2022-11-21T06:25:15.480Z,62.42
2022-11-21T06:27:42.091Z,62.33
2022-11-21T06:30:09.108Z,63.12
2022-11-21T06:32:38.118Z,62.70
2022-11-21T06:35:05.275Z,62.56
2022-11-21T06:37:31.958Z,62.36
2022-11-21T06:39:59.263Z,61.70
2022-11-21T06:42:25.921Z,61.78
2022-11-21T06:44:53.320Z,61.61
2022-11-21T06:47:20.112Z,62.11
2022-11-21T06:49:47.098Z,61.65
2022-11-21T06:52:13.841Z,61.91
2022-11-21T06:54:40.537Z,62.09
2022-11-21T06:57:07.303Z,62.18
2022-11-21T06:59:33.896Z,61.85
2022-11-21T07:02:00.913Z,62.74
2022-11-21T07:04:28.002Z,61.89
2022-11-21T07:06:54.737Z,61.53
2022-11-21T07:09:36.644Z,61.76
2022-11-21T07:12:22.035Z,61.89
2022-11-21T07:14:48.643Z,61.71
2022-11-21T07:17:15.385Z,61.69
2022-11-21T07:19:42.118Z,61.78
2022-11-21T07:22:09.137Z,61.07
2022-11-21T07:24:35.753Z,61.80
2022-11-21T07:27:02.803Z,61.20
2022-11-21T07:29:29.864Z,60.41
2022-11-21T07:31:56.868Z,60.98
2022-11-21T07:34:23.564Z,60.51
2022-11-21T07:36:50.155Z,59.97
2022-11-21T07:39:16.881Z,60.67
2022-11-21T07:41:43.456Z,60.81
2022-11-21T07:44:10.028Z,60.87
2022-11-21T07:46:36.595Z,60.94
2022-11-21T07:49:03.858Z,61.07
2022-11-21T07:51:30.762Z,59.80
2022-11-21T07:53:57.555Z,60.75
2022-11-21T07:56:26.391Z,60.16
2022-11-21T07:58:53.264Z,60.13
2022-11-21T08:01:20.107Z,59.76
2022-11-21T08:03:46.957Z,59.59
2022-11-21T08:06:13.629Z,59.51
2022-11-21T08:08:40.356Z,59.12
2022-11-21T08:11:08.056Z,59.62
2022-11-21T08:13:35.652Z,59.70
2022-11-21T08:16:03.999Z,59.72
2022-11-21T08:18:30.917Z,59.19
2022-11-21T08:21:00.190Z,58.61
2022-11-21T08:23:26.821Z,57.91
2022-11-21T08:25:53.561Z,57.60
2022-11-21T08:28:20.331Z,56.55
2022-11-21T08:30:47.096Z,56.47
2022-11-21T08:33:13.708Z,56.25
2022-11-21T08:35:40.354Z,56.51
2022-11-21T08:38:06.982Z,56.98
2022-11-21T08:40:34.873Z,56.69
2022-11-21T08:43:06.743Z,56.55
2022-11-21T08:45:35.399Z,56.29
2022-11-21T08:48:02.995Z,56.05
2022-11-21T08:50:29.886Z,55.67
2022-11-21T08:53:01.387Z,56.00
2022-11-21T08:55:28.365Z,55.13
2022-11-21T08:57:54.934Z,55.13
2022-11-21T09:00:21.610Z,55.53
2022-11-21T09:02:48.274Z,55.16
2022-11-21T09:05:17.460Z,54.30
2022-11-21T09:07:44.163Z,53.66
2022-11-21T09:10:10.819Z,51.60
2022-11-21T09:12:37.485Z,51.44
2022-11-21T09:15:23.157Z,50.49
2022-11-21T09:18:04.983Z,50.35
2022-11-21T09:20:34.153Z,50.72
2022-11-21T09:23:14.901Z,51.39
2022-11-21T09:25:42.441Z,51.88
2022-11-21T09:28:11.034Z,51.16
2022-11-21T09:30:39.100Z,51.19
2022-11-21T09:33:16.846Z,51.46
2022-11-21T09:35:43.864Z,51.23
2022-11-21T09:38:10.851Z,51.72
2022-11-21T09:40:43.951Z,51.24
2022-11-21T09:43:45.273Z,49.13
2022-11-21T09:46:16.369Z,50.07
2022-11-21T09:49:00.538Z,50.74
2022-11-21T09:51:31.060Z,51.52
2022-11-21T09:54:11.877Z,51.65
2022-11-21T09:56:41.691Z,51.57
2022-11-21T09:59:32.703Z,51.39
2022-11-21T10:01:59.777Z,51.95
2022-11-21T10:04:27.623Z,51.93
2022-11-21T10:07:03.201Z,52.32
2022-11-21T10:09:38.775Z,52.90
2022-11-21T10:12:39.968Z,52.34
2022-11-21T10:15:27.909Z,52.80
2022-11-21T10:18:25.382Z,52.86
2022-11-21T10:21:19.317Z,52.64
2022-11-21T10:23:59.731Z,52.02
2022-11-21T10:27:01.076Z,51.14
2022-11-21T10:29:35.019Z,50.95
2022-11-21T10:32:15.378Z,50.73
2022-11-21T10:34:46.139Z,51.97
2022-11-21T10:37:34.840Z,51.74
2022-11-21T10:40:45.944Z,51.90
2022-11-21T10:44:02.330Z,51.90
2022-11-21T10:46:28.995Z,52.25
2022-11-21T10:48:59.476Z,51.46
2022-11-21T10:51:32.142Z,50.91
2022-11-21T10:54:29.379Z,49.77
2022-11-21T10:57:01.967Z,49.56
2022-11-21T10:59:31.301Z,49.48
2022-11-21T11:02:02.265Z,48.89
2022-11-21T11:04:36.865Z,48.77
2022-11-21T11:07:29.213Z,48.03
2022-11-21T11:10:42.495Z,46.85
2022-11-21T11:13:46.518Z,46.08
2022-11-21T11:16:17.482Z,43.84
2022-11-21T11:18:54.350Z,39.00
2022-11-21T11:21:23.621Z,35.10
2022-11-21T11:23:52.112Z,33.55
2022-11-21T11:26:30.432Z,31.69
2022-11-21T11:29:20.859Z,29.87
2022-11-21T11:31:59.837Z,25.42
2022-11-21T11:34:39.264Z,26.06
2022-11-21T11:37:37.130Z,25.46
2022-11-21T11:40:30.376Z,24.93
2022-11-21T11:43:21.907Z,25.11
2022-11-21T11:46:10.283Z,23.08
2022-11-21T11:49:11.077Z,21.96
2022-11-21T11:51:35.098Z,20.89
2022-11-21T11:54:08.942Z,19.39
2022-11-21T11:56:38.760Z,19.60
2022-11-21T11:59:19.704Z,20.27
2022-11-21T12:01:58.376Z,22.76
2022-11-21T12:04:29.527Z,24.84
2022-11-21T12:10:32.029Z,30.98
2022-11-21T12:13:14.129Z,33.72
2022-11-21T12:15:49.927Z,35.05
2022-11-21T12:18:19.664Z,36.04
2022-11-21T12:20:54.369Z,37.25
2022-11-21T12:23:23.967Z,39.46
2022-11-21T12:26:14.059Z,40.67
2022-11-21T12:29:24.377Z,41.01
2022-11-21T12:32:10.218Z,41.29
2022-11-21T12:34:58.306Z,40.99
2022-11-21T12:37:43.828Z,41.45
2022-11-21T12:40:35.100Z,41.44
2022-11-21T12:43:23.530Z,41.97
2022-11-21T12:45:58.050Z,41.73
2022-11-21T12:49:09.704Z,40.62
2022-11-21T12:52:16.894Z,40.35
2022-11-21T12:54:52.692Z,41.40
2022-11-21T12:57:22.133Z,41.61
2022-11-21T13:00:12.053Z,42.12
2022-11-21T13:03:06.121Z,42.32
2022-11-21T13:05:38.946Z,43.00
2022-11-21T13:08:10.546Z,42.92
2022-11-21T13:10:41.760Z,43.31
2022-11-21T13:13:27.747Z,43.47
2022-11-21T13:16:02.934Z,43.36
2022-11-21T13:18:36.075Z,44.37
2022-11-21T13:21:02.776Z,44.93
2022-11-21T13:23:42.330Z,45.59
2022-11-21T13:26:31.860Z,45.84
2022-11-21T13:29:10.233Z,45.71
2022-11-21T13:31:37.605Z,46.63
2022-11-21T13:34:05.504Z,46.43
2022-11-21T13:36:32.122Z,46.21
2022-11-21T13:38:58.812Z,45.30
2022-11-21T13:41:53.342Z,44.85
2022-11-21T13:44:32.150Z,44.63
2022-11-21T13:47:05.126Z,44.43
2022-11-21T13:49:44.631Z,43.76
2022-11-21T13:52:20.345Z,43.62
2022-11-21T13:54:49.986Z,43.92
2022-11-21T13:57:32.899Z,44.11
2022-11-21T14:00:20.360Z,43.93
2022-11-21T14:02:56.677Z,44.55
2022-11-21T14:05:46.044Z,45.36
2022-11-21T14:08:14.577Z,45.95
2022-11-21T14:10:42.880Z,46.52
2022-11-21T14:13:21.424Z,46.54
2022-11-21T14:16:04.508Z,46.99
2022-11-21T14:18:32.747Z,47.47
2022-11-21T14:21:01.797Z,47.67
2022-11-21T14:23:35.166Z,48.24
2022-11-21T14:26:14.244Z,48.44
2022-11-21T14:28:42.320Z,48.50
2022-11-21T14:31:12.344Z,48.72
2022-11-21T14:33:39.826Z,49.10
2022-11-21T14:36:08.569Z,49.46
2022-11-21T14:39:29.120Z,49.97
2022-11-21T14:41:49.677Z,50.16
2022-11-21T14:44:18.123Z,50.36
2022-11-21T14:46:47.415Z,50.54
2022-11-21T14:49:14.526Z,50.33
2022-11-21T14:51:52.764Z,50.80
2022-11-21T14:54:26.190Z,51.23
2022-11-21T14:57:03.034Z,51.77
2022-11-21T14:59:38.669Z,52.09
2022-11-21T15:02:19.797Z,52.35
2022-11-21T15:04:52.560Z,53.15
2022-11-21T15:07:31.752Z,53.16
2022-11-21T15:10:28.703Z,53.43
2022-11-21T15:12:59.624Z,53.83
2022-11-21T15:15:34.544Z,53.85
2022-11-21T15:20:59.738Z,53.70
2022-11-21T15:23:36.846Z,53.81
2022-11-21T15:26:06.227Z,53.96
2022-11-21T15:28:36.587Z,54.83
2022-11-21T15:31:20.020Z,54.06
2022-11-21T15:34:19.099Z,54.69
2022-11-21T15:36:40.654Z,54.11
2022-11-21T15:39:21.844Z,54.67
2022-11-21T15:41:55.425Z,54.57
2022-11-21T15:44:23.013Z,54.97
2022-11-21T15:46:53.125Z,55.16
2022-11-21T15:49:32.916Z,55.39
2022-11-21T15:52:13.476Z,55.54
2022-11-21T15:54:43.973Z,55.83
2022-11-21T15:57:11.652Z,55.85
2022-11-21T15:59:43.480Z,56.40
2022-11-21T16:02:13.667Z,56.71
2022-11-21T16:04:41.441Z,57.32
2022-11-21T16:07:08.449Z,57.24
2022-11-21T16:09:40.194Z,57.53
2022-11-21T16:12:08.846Z,57.99
2022-11-21T16:14:38.581Z,57.75
2022-11-21T16:17:05.581Z,58.16
2022-11-21T16:19:32.868Z,58.17
2022-11-21T16:22:00.176Z,58.68
2022-11-21T16:24:27.203Z,58.35
2022-11-21T16:27:01.886Z,58.15
2022-11-21T16:29:31.611Z,58.00
2022-11-21T16:32:04.069Z,58.03
2022-11-21T16:34:34.007Z,58.38
2022-11-21T16:37:07.267Z,58.03
2022-11-21T16:39:37.821Z,58.14
2022-11-21T16:42:04.867Z,58.71
2022-11-21T16:44:32.270Z,58.63
2022-11-21T16:47:06.632Z,58.91
2022-11-21T16:49:41.108Z,58.59
2022-11-21T16:52:08.211Z,59.26
2022-11-21T16:54:38.933Z,58.92
2022-11-21T16:57:07.263Z,58.88
2022-11-21T16:59:37.150Z,58.81
2022-11-21T17:02:04.268Z,58.71
2022-11-21T17:04:32.266Z,58.74
2022-11-21T17:07:05.102Z,59.03
2022-11-21T17:09:32.170Z,58.76
2022-11-21T17:12:01.883Z,58.59
2022-11-21T17:14:28.887Z,58.24
2022-11-21T17:17:01.294Z,58.81
2022-11-21T17:19:28.511Z,59.14
2022-11-21T17:21:56.121Z,59.12
2022-11-21T17:24:23.525Z,58.59
2022-11-21T17:26:50.335Z,59.01
2022-11-21T17:29:17.199Z,59.21
2022-11-21T17:31:44.030Z,58.87
2022-11-21T17:34:10.773Z,58.72
2022-11-21T17:36:37.450Z,58.70
2022-11-21T17:39:06.328Z,58.50
2022-11-21T17:41:33.249Z,58.64
2022-11-21T17:44:02.765Z,58.60
2022-11-21T17:46:35.316Z,58.52
2022-11-21T17:49:02.210Z,58.31
2022-11-21T17:51:33.570Z,58.01
2022-11-21T17:54:01.523Z,58.46
2022-11-21T17:56:32.407Z,58.11
2022-11-21T17:59:28.459Z,57.21
2022-11-21T18:01:56.530Z,58.58
2022-11-21T18:04:23.491Z,58.52
2022-11-21T18:06:50.254Z,57.87
2022-11-21T18:09:17.384Z,57.22
2022-11-21T18:11:46.212Z,58.04
2022-11-21T18:14:16.126Z,57.40
2022-11-21T18:16:49.342Z,57.12
2022-11-21T18:19:23.436Z,57.52
2022-11-21T18:21:50.119Z,56.48
2022-11-21T18:24:17.812Z,56.02
2022-11-21T18:26:44.918Z,56.12
2022-11-21T18:31:58.984Z,56.78
2022-11-21T18:34:25.730Z,56.92
2022-11-21T18:36:52.377Z,56.71
2022-11-21T18:39:23.190Z,56.48
2022-11-21T18:41:50.910Z,56.24
2022-11-21T18:44:22.248Z,55.59
2022-11-21T18:46:49.887Z,55.72
2022-11-21T18:49:16.907Z,56.12
2022-11-21T18:51:48.498Z,55.58
2022-11-21T18:54:15.908Z,55.42
2022-11-21T18:56:43.381Z,55.37
2022-11-21T18:59:10.437Z,55.78
2022-11-21T19:01:40.106Z,55.16
2022-11-21T19:04:16.168Z,55.38
2022-11-21T19:06:43.329Z,55.26
2022-11-21T19:09:12.612Z,55.51
2022-11-21T19:11:42.267Z,55.50
2022-11-21T19:14:11.138Z,55.80
2022-11-21T19:16:37.868Z,56.24
2022-11-21T19:21:57.867Z,55.94
2022-11-21T19:24:25.472Z,55.76
2022-11-21T19:26:58.030Z,55.94
2022-11-21T19:29:24.990Z,55.65
2022-11-21T19:31:52.098Z,56.25
2022-11-21T19:34:18.780Z,56.15
2022-11-21T19:36:50.746Z,55.51
2022-11-21T19:39:31.548Z,56.15
2022-11-21T19:41:59.546Z,55.32
2022-11-21T19:44:26.351Z,55.23
2022-11-21T19:46:56.159Z,54.58
2022-11-21T19:49:29.812Z,54.06
2022-11-21T19:52:08.752Z,54.47
2022-11-21T19:54:42.330Z,55.01
2022-11-21T19:57:13.911Z,54.41
2022-11-21T19:59:46.806Z,53.58
2022-11-21T20:02:19.622Z,53.51
2022-11-21T20:04:51.938Z,54.00
2022-11-21T20:07:26.253Z,53.46
2022-11-21T20:09:53.750Z,53.17
2022-11-21T20:12:20.624Z,53.81
2022-11-21T20:14:50.099Z,53.97
2022-11-21T20:17:17.487Z,54.63
2022-11-21T20:19:50.282Z,55.03
2022-11-21T20:22:21.899Z,55.49
2022-11-21T20:24:51.928Z,56.34
2022-11-21T20:27:21.556Z,56.66
2022-11-21T20:29:50.720Z,56.79
2022-11-21T20:32:33.233Z,57.16
2022-11-21T20:35:03.311Z,57.73
2022-11-21T20:37:33.734Z,57.32
2022-11-21T20:40:06.816Z,59.06
2022-11-21T20:42:37.685Z,59.29
2022-11-21T20:46:07.204Z,59.20
2022-11-21T20:48:10.541Z,59.22
2022-11-21T20:51:42.261Z,59.79
2022-11-21T20:53:52.328Z,61.43
2022-11-21T20:56:17.527Z,61.66
2022-11-21T20:58:45.694Z,62.50
2022-11-21T21:01:18.216Z,63.28
2022-11-21T21:03:45.583Z,63.66
2022-11-21T21:06:19.716Z,63.59
2022-11-21T21:08:53.716Z,63.81
2022-11-21T21:11:50.320Z,63.83
2022-11-21T21:14:10.379Z,63.76
2022-11-21T21:16:39.761Z,64.68
2022-11-21T21:19:06.800Z,65.57
2022-11-21T21:21:35.147Z,65.75
2022-11-21T21:24:12.373Z,65.56
2022-11-21T21:26:44.956Z,66.88
2022-11-21T21:29:22.110Z,66.35
2022-11-21T21:31:52.019Z,65.10
2022-11-21T21:34:21.691Z,66.09
2022-11-21T21:36:49.411Z,64.43
2022-11-21T21:39:16.342Z,65.56
2022-11-21T21:41:47.359Z,65.84
2022-11-21T21:44:17.914Z,66.35
2022-11-21T21:46:45.468Z,66.16
2022-11-21T21:49:12.816Z,66.15
2022-11-21T21:51:40.178Z,65.83
2022-11-21T21:54:13.172Z,66.88
2022-11-21T21:56:39.811Z,66.75
2022-11-21T21:59:10.121Z,66.03
2022-11-21T22:01:39.104Z,65.60
2022-11-21T22:04:09.424Z,67.87
2022-11-21T22:06:38.373Z,68.85
2022-11-21T22:09:05.076Z,67.29
2022-11-21T22:11:35.552Z,67.89
2022-11-21T22:14:05.933Z,67.71
2022-11-21T22:16:33.228Z,67.94
2022-11-21T22:19:03.020Z,66.58
2022-11-21T22:21:32.748Z,66.97
2022-11-21T22:24:25.912Z,66.75
2022-11-21T22:26:56.490Z,65.98
2022-11-21T22:29:25.967Z,66.60
2022-11-21T22:31:52.793Z,66.37
2022-11-21T22:34:19.616Z,66.16
2022-11-21T22:36:47.021Z,67.39
2022-11-21T22:39:14.343Z,67.59
2022-11-21T22:41:41.490Z,67.97
2022-11-21T22:44:11.249Z,68.62
2022-11-21T22:46:39.060Z,69.04
2022-11-21T22:49:06.012Z,69.05
2022-11-21T22:51:32.681Z,69.45
2022-11-21T22:53:59.943Z,69.80
2022-11-21T22:56:29.759Z,70.00
2022-11-21T22:58:56.793Z,69.58
2022-11-21T23:01:26.025Z,69.65
2022-11-21T23:03:53.564Z,69.65
2022-11-21T23:06:24.074Z,69.67
2022-11-21T23:08:52.417Z,68.37
2022-11-21T23:11:22.901Z,67.81
2022-11-21T23:13:53.411Z,68.49
2022-11-21T23:16:21.182Z,68.25
2022-11-21T23:18:48.399Z,68.18
2022-11-21T23:21:15.448Z,69.11
2022-11-21T23:23:44.013Z,68.62
2022-11-21T23:26:12.199Z,68.31
2022-11-21T23:28:39.279Z,68.20
2022-11-21T23:31:09.225Z,67.92
2022-11-21T23:33:36.337Z,67.78
2022-11-21T23:36:02.973Z,67.94
2022-11-21T23:38:33.273Z,67.49
2022-11-21T23:41:00.142Z,66.86
2022-11-21T23:43:27.367Z,66.28
2022-11-21T23:45:57.081Z,65.54
2022-11-21T23:48:26.708Z,65.61
2022-11-21T23:50:58.931Z,65.17
2022-11-21T23:53:27.537Z,65.37
2022-11-21T23:55:54.299Z,64.96
2022-11-21T23:58:21.263Z,64.68
